sensor_id;sensor_type;location;lat;lon;timestamp;pressure;altitude;pressure_sealevel;temperature;humidity
23261;BME280;11799;47.740;-3.390;2023-05-18T00:01:17;102579.66;;;11.89;100.00
23261;BME280;11799;47.740;-3.390;2023-05-18T00:03:43;102574.63;;;11.84;100.00
23261;BME280;11799;47.740;-3.390;2023-05-18T00:06:09;102573.75;;;11.84;100.00
23261;BME280;11799;47.740;-3.390;2023-05-18T00:08:36;102575.72;;;11.80;100.00
23261;BME280;11799;47.740;-3.390;2023-05-18T00:11:02;102578.47;;;11.79;100.00
23261;BME280;11799;47.740;-3.390;2023-05-18T00:13:28;102576.88;;;11.75;100.00
23261;BME280;11799;47.740;-3.390;2023-05-18T00:15:54;102577.72;;;11.75;100.00
23261;BME280;11799;47.740;-3.390;2023-05-18T00:18:20;102577.81;;;11.74;100.00
23261;BME280;11799;47.740;-3.390;2023-05-18T00:20:51;102569.03;;;11.73;100.00
23261;BME280;11799;47.740;-3.390;2023-05-18T00:23:29;102567.47;;;11.69;100.00
23261;BME280;11799;47.740;-3.390;2023-05-18T00:26:00;102568.50;;;11.67;100.00
23261;BME280;11799;47.740;-3.390;2023-05-18T00:28:27;102568.59;;;11.65;100.00
23261;BME280;11799;47.740;-3.390;2023-05-18T00:30:54;102567.72;;;11.65;100.00
23261;BME280;11799;47.740;-3.390;2023-05-18T00:33:20;102557.41;;;11.60;100.00
23261;BME280;11799;47.740;-3.390;2023-05-18T00:35:46;102557.47;;;11.58;100.00
23261;BME280;11799;47.740;-3.390;2023-05-18T00:38:12;102566.44;;;11.56;100.00
23261;BME280;11799;47.740;-3.390;2023-05-18T00:40:40;102554.25;;;11.53;100.00
23261;BME280;11799;47.740;-3.390;2023-05-18T00:43:06;102556.13;;;11.51;100.00
23261;BME280;11799;47.740;-3.390;2023-05-18T00:45:32;102559.03;;;11.47;100.00
23261;BME280;11799;47.740;-3.390;2023-05-18T00:47:57;102561.59;;;11.48;100.00
23261;BME280;11799;47.740;-3.390;2023-05-18T00:50:23;102555.69;;;11.43;100.00
23261;BME280;11799;47.740;-3.390;2023-05-18T00:52:49;102559.09;;;11.45;100.00
23261;BME280;11799;47.740;-3.390;2023-05-18T00:55:16;102554.84;;;11.43;100.00
23261;BME280;11799;47.740;-3.390;2023-05-18T00:57:42;102554.91;;;11.41;100.00
23261;BME280;11799;47.740;-3.390;2023-05-18T01:00:09;102556.78;;;11.39;100.00
23261;BME280;11799;47.740;-3.390;2023-05-18T01:02:39;102547.22;;;11.37;100.00
23261;BME280;11799;47.740;-3.390;2023-05-18T01:05:08;102547.47;;;11.32;100.00
23261;BME280;11799;47.740;-3.390;2023-05-18T01:07:39;102557.13;;;11.33;100.00
23261;BME280;11799;47.740;-3.390;2023-05-18T01:10:07;102558.13;;;11.31;100.00
23261;BME280;11799;47.740;-3.390;2023-05-18T01:12:38;102557.28;;;11.30;100.00
23261;BME280;11799;47.740;-3.390;2023-05-18T01:15:13;102556.44;;;11.30;100.00
23261;BME280;11799;47.740;-3.390;2023-05-18T01:26:24;102555.81;;;11.24;100.00
23261;BME280;11799;47.740;-3.390;2023-05-18T01:29:05;102555.13;;;11.21;100.00
23261;BME280;11799;47.740;-3.390;2023-05-18T01:31:31;102546.41;;;11.19;100.00
23261;BME280;11799;47.740;-3.390;2023-05-18T01:33:57;102550.00;;;11.18;100.00
23261;BME280;11799;47.740;-3.390;2023-05-18T01:36:22;102550.22;;;11.13;100.00
23261;BME280;11799;47.740;-3.390;2023-05-18T01:38:48;102551.16;;;11.12;100.00
23261;BME280;11799;47.740;-3.390;2023-05-18T01:41:23;102554.75;;;11.11;100.00
23261;BME280;11799;47.740;-3.390;2023-05-18T01:44:07;102556.69;;;11.08;100.00
23261;BME280;11799;47.740;-3.390;2023-05-18T01:46:52;102560.34;;;11.05;100.00
23261;BME280;11799;47.740;-3.390;2023-05-18T01:52:20;102564.94;;;11.02;100.00
23261;BME280;11799;47.740;-3.390;2023-05-18T01:54:49;102564.94;;;11.02;100.00
23261;BME280;11799;47.740;-3.390;2023-05-18T01:57:17;102559.66;;;11.02;100.00
23261;BME280;11799;47.740;-3.390;2023-05-18T01:59:45;102560.59;;;11.01;100.00
23261;BME280;11799;47.740;-3.390;2023-05-18T02:02:11;102559.81;;;10.99;100.00
23261;BME280;11799;47.740;-3.390;2023-05-18T02:07:58;102560.09;;;10.94;100.00
23261;BME280;11799;47.740;-3.390;2023-05-18T02:10:24;102563.81;;;10.90;100.00
23261;BME280;11799;47.740;-3.390;2023-05-18T02:12:50;102564.06;;;10.85;100.00
23261;BME280;11799;47.740;-3.390;2023-05-18T02:15:17;102565.91;;;10.83;100.00
23261;BME280;11799;47.740;-3.390;2023-05-18T02:17:43;102566.69;;;10.85;100.00
23261;BME280;11799;47.740;-3.390;2023-05-18T02:20:09;102557.22;;;10.81;100.00
23261;BME280;11799;47.740;-3.390;2023-05-18T02:22:35;102552.88;;;10.80;100.00
23261;BME280;11799;47.740;-3.390;2023-05-18T02:25:02;102560.94;;;10.77;100.00
23261;BME280;11799;47.740;-3.390;2023-05-18T02:27:28;102560.16;;;10.75;100.00
23261;BME280;11799;47.740;-3.390;2023-05-18T02:29:54;102561.94;;;10.75;100.00
23261;BME280;11799;47.740;-3.390;2023-05-18T02:32:22;102553.25;;;10.73;100.00
23261;BME280;11799;47.740;-3.390;2023-05-18T02:34:52;102562.09;;;10.72;100.00
23261;BME280;11799;47.740;-3.390;2023-05-18T02:37:18;102556.91;;;10.70;100.00
23261;BME280;11799;47.740;-3.390;2023-05-18T02:39:43;102552.47;;;10.71;100.00
23261;BME280;11799;47.740;-3.390;2023-05-18T02:42:09;102545.72;;;10.65;100.00
23261;BME280;11799;47.740;-3.390;2023-05-18T02:44:34;102547.41;;;10.66;100.00
23261;BME280;11799;47.740;-3.390;2023-05-18T02:47:00;102559.00;;;10.64;100.00
23261;BME280;11799;47.740;-3.390;2023-05-18T02:49:25;102553.09;;;10.58;100.00
23261;BME280;11799;47.740;-3.390;2023-05-18T02:51:51;102558.44;;;10.57;100.00
23261;BME280;11799;47.740;-3.390;2023-05-18T02:54:17;102555.03;;;10.55;100.00
23261;BME280;11799;47.740;-3.390;2023-05-18T02:56:43;102569.09;;;10.55;100.00
23261;BME280;11799;47.740;-3.390;2023-05-18T02:59:41;102566.69;;;10.51;100.00
23261;BME280;11799;47.740;-3.390;2023-05-18T03:02:08;102565.03;;;10.48;100.00
23261;BME280;11799;47.740;-3.390;2023-05-18T03:04:33;102558.97;;;10.46;100.00
23261;BME280;11799;47.740;-3.390;2023-05-18T03:06:59;102567.91;;;10.44;100.00
23261;BME280;11799;47.740;-3.390;2023-05-18T03:09:28;102569.78;;;10.42;100.00
23261;BME280;11799;47.740;-3.390;2023-05-18T03:11:54;102566.38;;;10.40;100.00
23261;BME280;11799;47.740;-3.390;2023-05-18T03:14:20;102562.19;;;10.36;100.00
23261;BME280;11799;47.740;-3.390;2023-05-18T03:16:45;102566.59;;;10.35;100.00
23261;BME280;11799;47.740;-3.390;2023-05-18T03:19:13;102568.63;;;10.30;100.00
23261;BME280;11799;47.740;-3.390;2023-05-18T03:21:40;102566.91;;;10.29;100.00
23261;BME280;11799;47.740;-3.390;2023-05-18T03:24:07;102558.34;;;10.24;100.00
23261;BME280;11799;47.740;-3.390;2023-05-18T03:26:35;102565.41;;;10.23;100.00
23261;BME280;11799;47.740;-3.390;2023-05-18T03:29:03;102569.06;;;10.21;100.00
23261;BME280;11799;47.740;-3.390;2023-05-18T03:31:29;102570.25;;;10.14;100.00
23261;BME280;11799;47.740;-3.390;2023-05-18T03:33:57;102568.53;;;10.13;100.00
23261;BME280;11799;47.740;-3.390;2023-05-18T03:36:23;102567.75;;;10.11;100.00
23261;BME280;11799;47.740;-3.390;2023-05-18T03:38:52;102568.84;;;10.07;100.00
23261;BME280;11799;47.740;-3.390;2023-05-18T03:41:18;102564.34;;;10.09;100.00
23261;BME280;11799;47.740;-3.390;2023-05-18T03:43:44;102566.25;;;10.05;100.00
23261;BME280;11799;47.740;-3.390;2023-05-18T03:46:10;102567.19;;;10.04;100.00
23261;BME280;11799;47.740;-3.390;2023-05-18T03:48:36;102564.63;;;10.03;100.00
23261;BME280;11799;47.740;-3.390;2023-05-18T03:51:01;102569.19;;;9.99;100.00
23261;BME280;11799;47.740;-3.390;2023-05-18T03:53:29;102559.72;;;9.95;100.00
23261;BME280;11799;47.740;-3.390;2023-05-18T03:55:55;102564.91;;;9.97;100.00
23261;BME280;11799;47.740;-3.390;2023-05-18T03:58:21;102571.91;;;9.98;100.00
23261;BME280;11799;47.740;-3.390;2023-05-18T04:00:47;102562.28;;;9.97;100.00
23261;BME280;11799;47.740;-3.390;2023-05-18T04:03:14;102559.72;;;9.95;100.00
23261;BME280;11799;47.740;-3.390;2023-05-18T04:05:43;102564.06;;;9.96;100.00
23261;BME280;11799;47.740;-3.390;2023-05-18T04:08:09;102564.28;;;9.91;100.00
23261;BME280;11799;47.740;-3.390;2023-05-18T04:10:40;102566.84;;;9.93;100.00
23261;BME280;11799;47.740;-3.390;2023-05-18T04:13:06;102563.56;;;9.88;100.00
23261;BME280;11799;47.740;-3.390;2023-05-18T04:15:32;102566.34;;;9.85;100.00
23261;BME280;11799;47.740;-3.390;2023-05-18T04:17:58;102570.56;;;9.89;100.00
23261;BME280;11799;47.740;-3.390;2023-05-18T04:20:24;102570.63;;;9.87;100.00
23261;BME280;11799;47.740;-3.390;2023-05-18T04:22:53;102570.78;;;9.84;100.00
23261;BME280;11799;47.740;-3.390;2023-05-18T04:25:20;102563.88;;;9.82;100.00
23261;BME280;11799;47.740;-3.390;2023-05-18T04:27:47;102575.19;;;9.84;100.00
23261;BME280;11799;47.740;-3.390;2023-05-18T04:30:14;102570.78;;;9.84;100.00
23261;BME280;11799;47.740;-3.390;2023-05-18T04:32:43;102575.19;;;9.84;100.00
23261;BME280;11799;47.740;-3.390;2023-05-18T04:35:09;102575.25;;;9.82;100.00
23261;BME280;11799;47.740;-3.390;2023-05-18T04:37:36;102571.81;;;9.82;100.00
23261;BME280;11799;47.740;-3.390;2023-05-18T04:40:06;102574.34;;;9.83;100.00
23261;BME280;11799;47.740;-3.390;2023-05-18T04:42:33;102572.47;;;9.85;100.00
23261;BME280;11799;47.740;-3.390;2023-05-18T04:45:00;102570.09;;;9.81;100.00
23261;BME280;11799;47.740;-3.390;2023-05-18T04:47:28;102578.63;;;9.86;100.00
23261;BME280;11799;47.740;-3.390;2023-05-18T04:49:54;102575.84;;;9.89;100.00
23261;BME280;11799;47.740;-3.390;2023-05-18T04:52:20;102570.63;;;9.87;100.00
23261;BME280;11799;47.740;-3.390;2023-05-18T04:54:46;102574.13;;;9.88;100.00
23261;BME280;11799;47.740;-3.390;2023-05-18T04:57:13;102569.63;;;9.90;100.00
23261;BME280;11799;47.740;-3.390;2023-05-18T04:59:41;102573.19;;;9.89;100.00
23261;BME280;11799;47.740;-3.390;2023-05-18T05:02:12;102587.16;;;9.91;100.00
23261;BME280;11799;47.740;-3.390;2023-05-18T05:04:38;102588.81;;;9.93;100.00
23261;BME280;11799;47.740;-3.390;2023-05-18T05:07:04;102597.44;;;9.97;100.00
23261;BME280;11799;47.740;-3.390;2023-05-18T05:09:30;102601.88;;;9.97;100.00
23261;BME280;11799;47.740;-3.390;2023-05-18T05:11:55;102601.72;;;10.00;100.00
23261;BME280;11799;47.740;-3.390;2023-05-18T05:14:22;102607.72;;;10.03;100.00
23261;BME280;11799;47.740;-3.390;2023-05-18T05:16:47;102605.00;;;10.05;100.00
23261;BME280;11799;47.740;-3.390;2023-05-18T05:19:13;102609.34;;;10.06;100.00
23261;BME280;11799;47.740;-3.390;2023-05-18T05:21:38;102607.50;;;10.08;100.00
23261;BME280;11799;47.740;-3.390;2023-05-18T05:24:05;102612.63;;;10.11;100.00
23261;BME280;11799;47.740;-3.390;2023-05-18T05:26:32;102608.06;;;10.14;100.00
23261;BME280;11799;47.740;-3.390;2023-05-18T05:28:58;102607.00;;;10.18;100.00
23261;BME280;11799;47.740;-3.390;2023-05-18T05:31:24;102601.59;;;10.21;100.00
23261;BME280;11799;47.740;-3.390;2023-05-18T05:33:50;102602.31;;;10.25;100.00
23261;BME280;11799;47.740;-3.390;2023-05-18T05:36:16;102606.38;;;10.32;100.00
23261;BME280;11799;47.740;-3.390;2023-05-18T05:38:41;102609.72;;;10.36;100.00
23261;BME280;11799;47.740;-3.390;2023-05-18T05:41:07;102607.69;;;10.41;100.00
23261;BME280;11799;47.740;-3.390;2023-05-18T05:43:33;102610.25;;;10.42;100.00
23261;BME280;11799;47.740;-3.390;2023-05-18T05:45:58;102609.09;;;10.48;100.00
23261;BME280;11799;47.740;-3.390;2023-05-18T05:48:24;102610.66;;;10.52;100.00
23261;BME280;11799;47.740;-3.390;2023-05-18T05:50:50;102612.13;;;10.57;100.00
23261;BME280;11799;47.740;-3.390;2023-05-18T05:53:15;102613.53;;;10.65;100.00
23261;BME280;11799;47.740;-3.390;2023-05-18T05:55:44;102613.09;;;10.74;100.00
23261;BME280;11799;47.740;-3.390;2023-05-18T05:58:12;102611.00;;;10.80;100.00
23261;BME280;11799;47.740;-3.390;2023-05-18T06:00:39;102621.34;;;10.85;100.00
23261;BME280;11799;47.740;-3.390;2023-05-18T06:03:05;102620.97;;;10.93;100.00
23261;BME280;11799;47.740;-3.390;2023-05-18T06:05:34;102617.91;;;11.00;100.00
23261;BME280;11799;47.740;-3.390;2023-05-18T06:08:00;102617.50;;;11.08;100.00
23261;BME280;11799;47.740;-3.390;2023-05-18T06:10:26;102609.19;;;11.15;100.00
23261;BME280;11799;47.740;-3.390;2023-05-18T06:12:52;102613.22;;;11.22;100.00
23261;BME280;11799;47.740;-3.390;2023-05-18T06:15:19;102615.53;;;11.29;100.00
23261;BME280;11799;47.740;-3.390;2023-05-18T06:17:45;102621.22;;;11.38;100.00
23261;BME280;11799;47.740;-3.390;2023-05-18T06:20:11;102619.03;;;11.46;100.00
23261;BME280;11799;47.740;-3.390;2023-05-18T06:22:38;102617.00;;;11.51;100.00
23261;BME280;11799;47.740;-3.390;2023-05-18T06:25:15;102625.41;;;11.58;100.00
23261;BME280;11799;47.740;-3.390;2023-05-18T06:28:06;102618.88;;;11.65;100.00
23261;BME280;11799;47.740;-3.390;2023-05-18T06:30:38;102624.53;;;11.75;100.00
23261;BME280;11799;47.740;-3.390;2023-05-18T06:33:19;102609.03;;;11.84;100.00
23261;BME280;11799;47.740;-3.390;2023-05-18T06:35:45;102621.16;;;11.88;100.00
23261;BME280;11799;47.740;-3.390;2023-05-18T06:38:11;102622.38;;;11.99;100.00
23261;BME280;11799;47.740;-3.390;2023-05-18T06:40:37;102624.50;;;12.08;100.00
23261;BME280;11799;47.740;-3.390;2023-05-18T06:43:03;102626.78;;;12.14;100.00
23261;BME280;11799;47.740;-3.390;2023-05-18T06:45:41;102626.19;;;12.24;100.00
23261;BME280;11799;47.740;-3.390;2023-05-18T06:48:11;102631.56;;;12.39;100.00
23261;BME280;11799;47.740;-3.390;2023-05-18T06:50:37;102625.66;;;12.49;100.00
23261;BME280;11799;47.740;-3.390;2023-05-18T06:53:03;102630.00;;;12.66;100.00
23261;BME280;11799;47.740;-3.390;2023-05-18T06:55:29;102631.81;;;12.80;100.00
23261;BME280;11799;47.740;-3.390;2023-05-18T06:57:55;102625.44;;;12.98;100.00
23261;BME280;11799;47.740;-3.390;2023-05-18T07:00:23;102622.81;;;13.12;100.00
23261;BME280;11799;47.740;-3.390;2023-05-18T07:02:49;102619.38;;;13.26;100.00
23261;BME280;11799;47.740;-3.390;2023-05-18T07:05:15;102621.06;;;13.41;100.00
23261;BME280;11799;47.740;-3.390;2023-05-18T07:07:41;102620.72;;;13.62;100.00
23261;BME280;11799;47.740;-3.390;2023-05-18T07:10:07;102626.00;;;13.76;100.00
23261;BME280;11799;47.740;-3.390;2023-05-18T07:12:32;102623.78;;;13.97;100.00
23261;BME280;11799;47.740;-3.390;2023-05-18T07:14:58;102623.84;;;14.09;100.00
23261;BME280;11799;47.740;-3.390;2023-05-18T07:17:24;102625.53;;;14.25;100.00
23261;BME280;11799;47.740;-3.390;2023-05-18T07:19:49;102620.75;;;14.44;100.00
23261;BME280;11799;47.740;-3.390;2023-05-18T07:22:15;102616.66;;;14.65;100.00
23261;BME280;11799;47.740;-3.390;2023-05-18T07:24:40;102622.06;;;14.91;100.00
23261;BME280;11799;47.740;-3.390;2023-05-18T07:27:06;102619.50;;;15.14;100.00
23261;BME280;11799;47.740;-3.390;2023-05-18T07:29:32;102610.16;;;15.34;100.00
23261;BME280;11799;47.740;-3.390;2023-05-18T07:31:58;102620.69;;;15.48;100.00
23261;BME280;11799;47.740;-3.390;2023-05-18T07:34:23;102622.19;;;15.65;100.00
23261;BME280;11799;47.740;-3.390;2023-05-18T07:36:52;102610.44;;;15.80;100.00
23261;BME280;11799;47.740;-3.390;2023-05-18T07:39:18;102616.16;;;16.00;100.00
23261;BME280;11799;47.740;-3.390;2023-05-18T07:41:47;102619.75;;;16.11;100.00
23261;BME280;11799;47.740;-3.390;2023-05-18T07:44:14;102614.13;;;16.27;100.00
23261;BME280;11799;47.740;-3.390;2023-05-18T07:46:40;102608.50;;;16.43;100.00
23261;BME280;11799;47.740;-3.390;2023-05-18T07:49:06;102610.16;;;16.57;100.00
23261;BME280;11799;47.740;-3.390;2023-05-18T07:51:32;102607.34;;;16.71;100.00
23261;BME280;11799;47.740;-3.390;2023-05-18T07:53:58;102610.50;;;16.87;100.00
23261;BME280;11799;47.740;-3.390;2023-05-18T07:56:24;102604.25;;;16.99;100.00
23261;BME280;11799;47.740;-3.390;2023-05-18T07:58:50;102605.50;;;17.17;100.00
23261;BME280;11799;47.740;-3.390;2023-05-18T08:01:16;102602.34;;;17.35;100.00
23261;BME280;11799;47.740;-3.390;2023-05-18T08:03:42;102602.34;;;17.46;99.13
23261;BME280;11799;47.740;-3.390;2023-05-18T08:06:07;102598.47;;;17.61;98.36
23261;BME280;11799;47.740;-3.390;2023-05-18T08:08:33;102596.06;;;17.69;100.00
23261;BME280;11799;47.740;-3.390;2023-05-18T08:11:04;102591.34;;;17.73;97.47
23261;BME280;11799;47.740;-3.390;2023-05-18T08:13:30;102592.19;;;17.73;97.41
23261;BME280;11799;47.740;-3.390;2023-05-18T08:15:55;102587.47;;;17.66;96.67
23261;BME280;11799;47.740;-3.390;2023-05-18T08:18:21;102584.78;;;17.66;98.63
23261;BME280;11799;47.740;-3.390;2023-05-18T08:20:47;102585.13;;;17.61;99.05
23261;BME280;11799;47.740;-3.390;2023-05-18T08:23:14;102584.16;;;17.62;100.00
23261;BME280;11799;47.740;-3.390;2023-05-18T08:25:40;102581.97;;;17.56;98.11
23261;BME280;11799;47.740;-3.390;2023-05-18T08:28:05;102581.59;;;17.49;94.34
23261;BME280;11799;47.740;-3.390;2023-05-18T08:30:31;102576.13;;;17.51;93.23
23261;BME280;11799;47.740;-3.390;2023-05-18T08:32:57;102587.91;;;17.48;91.21
23261;BME280;11799;47.740;-3.390;2023-05-18T08:35:23;102578.56;;;17.43;93.96
23261;BME280;11799;47.740;-3.390;2023-05-18T08:37:48;102575.03;;;17.42;95.06
23261;BME280;11799;47.740;-3.390;2023-05-18T08:40:14;102570.41;;;17.44;94.96
23261;BME280;11799;47.740;-3.390;2023-05-18T08:45:21;102564.84;;;17.47;97.49
23261;BME280;11799;47.740;-3.390;2023-05-18T08:47:53;102574.31;;;17.52;97.76
23261;BME280;11799;47.740;-3.390;2023-05-18T08:50:20;102567.03;;;17.54;90.44
23261;BME280;11799;47.740;-3.390;2023-05-18T08:52:46;102576.13;;;17.62;91.51
23261;BME280;11799;47.740;-3.390;2023-05-18T08:55:13;102574.47;;;17.72;92.12
23261;BME280;11799;47.740;-3.390;2023-05-18T08:57:42;102581.97;;;17.78;92.34
23261;BME280;11799;47.740;-3.390;2023-05-18T09:00:10;102573.47;;;17.85;84.26
23261;BME280;11799;47.740;-3.390;2023-05-18T09:02:37;102576.63;;;17.90;85.13
23261;BME280;11799;47.740;-3.390;2023-05-18T09:05:05;102572.13;;;17.90;83.85
23261;BME280;11799;47.740;-3.390;2023-05-18T09:07:31;102573.22;;;17.88;82.75
23261;BME280;11799;47.740;-3.390;2023-05-18T09:09:57;102573.41;;;17.96;78.36
23261;BME280;11799;47.740;-3.390;2023-05-18T09:12:25;102569.91;;;17.95;76.46
23261;BME280;11799;47.740;-3.390;2023-05-18T09:14:53;102561.63;;;17.98;80.02
23261;BME280;11799;47.740;-3.390;2023-05-18T09:17:19;102561.13;;;18.04;77.46
23261;BME280;11799;47.740;-3.390;2023-05-18T09:19:47;102556.25;;;18.09;76.97
23261;BME280;11799;47.740;-3.390;2023-05-18T09:22:13;102560.97;;;18.17;79.59
23261;BME280;11799;47.740;-3.390;2023-05-18T09:24:40;102558.06;;;18.20;72.93
23261;BME280;11799;47.740;-3.390;2023-05-18T09:27:06;102553.31;;;18.24;74.07
23261;BME280;11799;47.740;-3.390;2023-05-18T09:29:31;102552.66;;;18.31;75.31
23261;BME280;11799;47.740;-3.390;2023-05-18T09:32:01;102552.78;;;18.30;68.63
23261;BME280;11799;47.740;-3.390;2023-05-18T09:34:38;102561.03;;;18.38;70.53
23261;BME280;11799;47.740;-3.390;2023-05-18T09:37:04;102558.81;;;18.43;68.90
23261;BME280;11799;47.740;-3.390;2023-05-18T09:39:30;102558.56;;;18.46;64.77
23261;BME280;11799;47.740;-3.390;2023-05-18T09:41:56;102559.72;;;18.53;62.51
23261;BME280;11799;47.740;-3.390;2023-05-18T09:44:35;102546.81;;;18.58;62.60
23261;BME280;11799;47.740;-3.390;2023-05-18T09:47:01;102547.16;;;18.65;59.50
23261;BME280;11799;47.740;-3.390;2023-05-18T09:49:31;102543.25;;;18.69;63.15
23261;BME280;11799;47.740;-3.390;2023-05-18T09:51:57;102546.38;;;18.74;60.83
23261;BME280;11799;47.740;-3.390;2023-05-18T09:54:25;102542.47;;;18.78;56.77
23261;BME280;11799;47.740;-3.390;2023-05-18T09:56:51;102544.38;;;18.87;62.70
23261;BME280;11799;47.740;-3.390;2023-05-18T09:59:16;102546.38;;;18.95;59.33
23261;BME280;11799;47.740;-3.390;2023-05-18T10:01:58;102539.25;;;19.05;58.58
23261;BME280;11799;47.740;-3.390;2023-05-18T10:04:42;102543.34;;;19.09;60.24
23261;BME280;11799;47.740;-3.390;2023-05-18T10:07:10;102536.28;;;19.08;62.12
23261;BME280;11799;47.740;-3.390;2023-05-18T10:09:39;102547.44;;;19.03;62.09
23261;BME280;11799;47.740;-3.390;2023-05-18T10:14:40;102535.63;;;19.16;65.09
23261;BME280;11799;47.740;-3.390;2023-05-18T10:17:05;102544.50;;;19.16;61.42
23261;BME280;11799;47.740;-3.390;2023-05-18T10:19:34;102537.84;;;19.10;57.35
23261;BME280;11799;47.740;-3.390;2023-05-18T10:22:04;102535.81;;;19.24;59.03
23261;BME280;11799;47.740;-3.390;2023-05-18T10:24:34;102543.00;;;19.23;55.25
23261;BME280;11799;47.740;-3.390;2023-05-18T10:27:01;102540.63;;;19.30;57.76
23261;BME280;11799;47.740;-3.390;2023-05-18T10:29:29;102539.91;;;19.28;56.60
23261;BME280;11799;47.740;-3.390;2023-05-18T10:31:58;102537.94;;;19.30;56.21
23261;BME280;11799;47.740;-3.390;2023-05-18T10:34:31;102545.97;;;19.30;57.67
23261;BME280;11799;47.740;-3.390;2023-05-18T10:37:00;102536.97;;;19.31;52.80
23261;BME280;11799;47.740;-3.390;2023-05-18T10:39:30;102541.50;;;19.40;54.83
23261;BME280;11799;47.740;-3.390;2023-05-18T10:41:59;102537.19;;;19.49;50.12
23261;BME280;11799;47.740;-3.390;2023-05-18T10:44:24;102540.47;;;19.52;50.83
23261;BME280;11799;47.740;-3.390;2023-05-18T10:46:51;102535.56;;;19.57;54.10
23261;BME280;11799;47.740;-3.390;2023-05-18T10:49:20;102542.47;;;19.60;55.97
23261;BME280;11799;47.740;-3.390;2023-05-18T10:51:51;102538.09;;;19.68;55.45
23261;BME280;11799;47.740;-3.390;2023-05-18T10:54:18;102529.22;;;19.77;53.55
23261;BME280;11799;47.740;-3.390;2023-05-18T10:56:47;102529.81;;;19.81;53.76
23261;BME280;11799;47.740;-3.390;2023-05-18T10:59:15;102527.84;;;19.93;53.53
23261;BME280;11799;47.740;-3.390;2023-05-18T11:01:43;102517.69;;;19.96;53.57
23261;BME280;11799;47.740;-3.390;2023-05-18T11:04:10;102526.88;;;20.03;54.09
23261;BME280;11799;47.740;-3.390;2023-05-18T11:06:35;102515.72;;;20.08;54.22
23261;BME280;11799;47.740;-3.390;2023-05-18T11:09:01;102516.88;;;20.15;52.86
23261;BME280;11799;47.740;-3.390;2023-05-18T11:11:27;102522.66;;;20.20;51.30
23261;BME280;11799;47.740;-3.390;2023-05-18T11:14:00;102521.09;;;20.27;55.38
23261;BME280;11799;47.740;-3.390;2023-05-18T11:16:34;102517.31;;;20.39;55.05
23261;BME280;11799;47.740;-3.390;2023-05-18T11:19:07;102512.91;;;20.48;52.50
23261;BME280;11799;47.740;-3.390;2023-05-18T11:24:28;102508.38;;;20.68;49.57
23261;BME280;11799;47.740;-3.390;2023-05-18T11:27:06;102506.53;;;20.59;50.33
23261;BME280;11799;47.740;-3.390;2023-05-18T11:29:40;102510.63;;;20.63;51.56
23261;BME280;11799;47.740;-3.390;2023-05-18T11:32:26;102509.38;;;20.67;52.17
23261;BME280;11799;47.740;-3.390;2023-05-18T11:34:54;102514.59;;;20.68;48.64
23261;BME280;11799;47.740;-3.390;2023-05-18T11:40:06;102508.72;;;20.83;49.82
23261;BME280;11799;47.740;-3.390;2023-05-18T11:42:34;102498.31;;;20.80;48.06
23261;BME280;11799;47.740;-3.390;2023-05-18T11:45:11;102496.00;;;20.85;49.59
23261;BME280;11799;47.740;-3.390;2023-05-18T11:47:37;102494.59;;;20.90;49.76
23261;BME280;11799;47.740;-3.390;2023-05-18T11:50:09;102495.97;;;20.94;47.28
23261;BME280;11799;47.740;-3.390;2023-05-18T11:52:50;102492.28;;;21.05;47.74
23261;BME280;11799;47.740;-3.390;2023-05-18T11:55:17;102497.75;;;21.23;51.42
23261;BME280;11799;47.740;-3.390;2023-05-18T11:57:43;102493.31;;;21.31;50.38
23261;BME280;11799;47.740;-3.390;2023-05-18T12:00:12;102482.19;;;21.26;50.01
23261;BME280;11799;47.740;-3.390;2023-05-18T12:02:43;102483.88;;;21.18;50.43
23261;BME280;11799;47.740;-3.390;2023-05-18T12:05:09;102488.56;;;21.16;50.34
23261;BME280;11799;47.740;-3.390;2023-05-18T12:07:36;102484.31;;;21.13;49.34
23261;BME280;11799;47.740;-3.390;2023-05-18T12:10:07;102489.69;;;21.23;49.97
23261;BME280;11799;47.740;-3.390;2023-05-18T12:12:33;102480.69;;;21.59;49.67
23261;BME280;11799;47.740;-3.390;2023-05-18T12:15:03;102479.09;;;21.66;51.07
23261;BME280;11799;47.740;-3.390;2023-05-18T12:17:49;102486.28;;;21.93;47.86
23261;BME280;11799;47.740;-3.390;2023-05-18T12:20:15;102470.50;;;22.34;47.19
23261;BME280;11799;47.740;-3.390;2023-05-18T12:22:43;102465.03;;;22.44;43.86
23261;BME280;11799;47.740;-3.390;2023-05-18T12:25:10;102456.25;;;22.67;48.45
23261;BME280;11799;47.740;-3.390;2023-05-18T12:27:39;102457.97;;;22.77;44.68
23261;BME280;11799;47.740;-3.390;2023-05-18T12:30:15;102453.59;;;22.76;44.17
23261;BME280;11799;47.740;-3.390;2023-05-18T12:32:46;102456.50;;;22.56;44.70
23261;BME280;11799;47.740;-3.390;2023-05-18T12:35:12;102458.44;;;22.38;43.37
23261;BME280;11799;47.740;-3.390;2023-05-18T12:37:44;102450.75;;;22.25;44.88
23261;BME280;11799;47.740;-3.390;2023-05-18T12:40:12;102456.31;;;21.88;44.38
23261;BME280;11799;47.740;-3.390;2023-05-18T12:42:38;102459.59;;;21.64;46.63
23261;BME280;11799;47.740;-3.390;2023-05-18T12:45:04;102453.69;;;21.79;46.56
23261;BME280;11799;47.740;-3.390;2023-05-18T12:47:32;102453.84;;;21.95;47.92
23261;BME280;11799;47.740;-3.390;2023-05-18T12:50:01;102438.38;;;22.15;45.79
23261;BME280;11799;47.740;-3.390;2023-05-18T12:52:27;102435.22;;;22.19;44.48
23261;BME280;11799;47.740;-3.390;2023-05-18T12:54:54;102445.22;;;22.27;43.13
23261;BME280;11799;47.740;-3.390;2023-05-18T12:57:25;102425.66;;;22.43;44.58
23261;BME280;11799;47.740;-3.390;2023-05-18T12:59:52;102440.31;;;22.48;43.72
23261;BME280;11799;47.740;-3.390;2023-05-18T13:02:32;102424.72;;;22.60;44.64
23261;BME280;11799;47.740;-3.390;2023-05-18T13:05:08;102422.34;;;22.49;43.49